createdAt,value
2017-06-12T00:00:55.038Z,21.29
2017-06-12T00:03:21.364Z,21.35
2017-06-12T00:05:47.788Z,20.99
2017-06-12T00:08:14.138Z,21.14
2017-06-12T00:10:40.509Z,21.26
2017-06-12T00:13:06.838Z,21.65
2017-06-12T00:15:33.175Z,21.53
2017-06-12T00:17:59.508Z,20.89
2017-06-12T00:20:25.826Z,21.57
2017-06-12T00:22:52.166Z,21.41
2017-06-12T00:25:18.522Z,21.33
2017-06-12T00:27:44.933Z,21.41
2017-06-12T00:30:11.285Z,21.16
2017-06-12T00:32:37.608Z,21.20
2017-06-12T00:35:03.939Z,21.24
2017-06-12T00:37:30.382Z,21.57
2017-06-12T00:39:56.706Z,21.34
2017-06-12T00:42:23.046Z,20.69
2017-06-12T00:44:49.372Z,21.02
2017-06-12T00:47:15.717Z,21.15
2017-06-12T00:49:42.034Z,20.84
2017-06-12T00:52:08.377Z,21.11
2017-06-12T00:54:34.721Z,20.79
2017-06-12T00:57:01.123Z,21.05
2017-06-12T00:59:27.474Z,21.15
2017-06-12T01:01:53.804Z,20.86
2017-06-12T01:04:20.118Z,21.22
2017-06-12T01:06:46.505Z,20.95
2017-06-12T01:09:12.868Z,21.01
2017-06-12T01:11:39.201Z,21.01
2017-06-12T01:14:05.534Z,21.15
2017-06-12T01:16:31.907Z,20.92
2017-06-12T01:18:58.258Z,20.96
2017-06-12T01:21:24.650Z,21.12
2017-06-12T01:23:50.992Z,21.22
2017-06-12T01:26:17.325Z,21.04
2017-06-12T01:28:43.687Z,20.95
2017-06-12T01:31:10.048Z,20.79
2017-06-12T01:33:36.408Z,20.30
2017-06-12T01:36:02.741Z,20.72
2017-06-12T01:38:29.082Z,20.38
2017-06-12T01:40:55.442Z,20.53
2017-06-12T01:43:21.870Z,20.58
2017-06-12T01:45:48.248Z,20.79
2017-06-12T01:48:14.631Z,20.71
2017-06-12T01:50:40.999Z,20.68
2017-06-12T01:53:07.340Z,20.21
2017-06-12T01:55:33.686Z,20.33
2017-06-12T01:58:00.041Z,20.56
2017-06-12T02:00:26.386Z,20.22
2017-06-12T02:02:52.756Z,20.13
2017-06-12T02:05:19.172Z,20.06
2017-06-12T02:07:45.520Z,20.51
2017-06-12T02:10:11.841Z,20.33
2017-06-12T02:12:38.145Z,20.13
2017-06-12T02:15:04.463Z,20.12
2017-06-12T02:17:30.789Z,20.24
2017-06-12T02:19:57.121Z,20.69
2017-06-12T02:22:23.558Z,20.48
2017-06-12T02:24:49.922Z,19.91
2017-06-12T02:27:16.254Z,19.99
2017-06-12T02:29:42.583Z,19.93
2017-06-12T02:32:08.910Z,20.13
2017-06-12T02:34:35.240Z,19.98
2017-06-12T02:37:01.610Z,19.71
2017-06-12T02:39:27.944Z,20.00
2017-06-12T02:41:54.296Z,20.15
2017-06-12T02:44:20.646Z,19.76
2017-06-12T02:46:46.962Z,19.41
2017-06-12T02:49:13.329Z,20.12
2017-06-12T02:51:39.673Z,20.38
2017-06-12T02:54:06.019Z,19.67
2017-06-12T02:56:32.326Z,19.16
2017-06-12T02:58:58.735Z,19.37
2017-06-12T03:01:25.064Z,19.65
2017-06-12T03:03:51.396Z,19.62
2017-06-12T03:06:17.721Z,19.15
2017-06-12T03:08:44.076Z,19.04
2017-06-12T03:11:10.451Z,18.98
2017-06-12T03:13:36.848Z,19.04
2017-06-12T03:16:03.178Z,19.29
2017-06-12T03:18:29.543Z,19.31
2017-06-12T03:20:55.886Z,19.22
2017-06-12T03:23:22.229Z,19.32
2017-06-12T03:25:48.567Z,19.34
2017-06-12T03:28:14.910Z,19.06
2017-06-12T03:30:41.249Z,19.06
2017-06-12T03:33:07.561Z,19.32
2017-06-12T03:35:34.297Z,19.32
2017-06-12T03:38:00.637Z,18.94
2017-06-12T03:40:26.958Z,18.96
2017-06-12T03:42:53.308Z,18.91
2017-06-12T03:45:19.676Z,18.38
2017-06-12T03:47:46.010Z,18.91
2017-06-12T03:50:12.323Z,18.11
2017-06-12T03:52:38.654Z,17.94
2017-06-12T03:55:05.018Z,18.96
2017-06-12T03:57:31.357Z,18.25
2017-06-12T03:59:57.706Z,18.51
2017-06-12T04:02:24.048Z,18.92
2017-06-12T04:04:50.493Z,18.57
2017-06-12T04:07:16.808Z,18.63
2017-06-12T04:09:43.153Z,18.89
2017-06-12T04:12:09.479Z,18.20
2017-06-12T04:14:35.942Z,18.41
2017-06-12T04:17:02.285Z,18.41
2017-06-12T04:19:28.603Z,18.24
2017-06-12T04:21:54.915Z,18.19
2017-06-12T04:24:21.234Z,18.05
2017-06-12T04:26:47.553Z,18.50
2017-06-12T04:29:13.876Z,18.15
2017-06-12T04:31:40.218Z,18.74
2017-06-12T04:34:06.544Z,18.36
2017-06-12T04:36:32.879Z,18.91
2017-06-12T04:38:59.213Z,18.03
2017-06-12T04:41:25.541Z,18.01
2017-06-12T04:43:51.858Z,18.97
2017-06-12T04:46:18.183Z,18.25
2017-06-12T04:48:44.509Z,18.59
2017-06-12T04:51:10.894Z,18.27
2017-06-12T04:53:37.233Z,18.13
2017-06-12T04:56:03.569Z,18.86
2017-06-12T04:58:29.878Z,18.59
2017-06-12T05:00:56.262Z,19.26
2017-06-12T05:03:22.621Z,18.45
2017-06-12T05:05:48.940Z,18.68
2017-06-12T05:08:15.271Z,18.39
2017-06-12T05:10:41.691Z,18.95
2017-06-12T05:13:08.017Z,18.47
2017-06-12T05:15:34.349Z,18.75
2017-06-12T05:18:00.673Z,19.42
2017-06-12T05:20:27.074Z,18.97
2017-06-12T05:22:53.389Z,18.61
2017-06-12T05:25:19.727Z,19.31
2017-06-12T05:27:46.062Z,18.35
2017-06-12T05:30:12.467Z,19.29
2017-06-12T05:32:38.808Z,18.97
2017-06-12T05:35:05.116Z,18.88
2017-06-12T05:37:31.434Z,18.31
2017-06-12T05:39:57.761Z,18.31
2017-06-12T05:42:24.084Z,18.46
2017-06-12T05:44:50.416Z,18.81
2017-06-12T05:47:16.730Z,18.61
2017-06-12T05:49:43.080Z,18.46
2017-06-12T05:52:09.459Z,18.92
2017-06-12T05:54:35.817Z,19.01
2017-06-12T05:57:02.220Z,18.87
2017-06-12T05:59:28.569Z,17.95
2017-06-12T06:01:54.920Z,18.62
2017-06-12T06:04:21.250Z,19.09
2017-06-12T06:06:47.679Z,18.06
2017-06-12T06:09:13.998Z,19.22
2017-06-12T06:11:40.364Z,18.98
2017-06-12T06:14:06.716Z,18.19
2017-06-12T06:16:33.122Z,19.01
2017-06-12T06:18:59.455Z,17.94
2017-06-12T06:21:25.805Z,18.36
2017-06-12T06:23:52.122Z,18.41
2017-06-12T06:26:18.442Z,18.98
2017-06-12T06:28:44.767Z,18.87
2017-06-12T06:31:11.099Z,18.80
2017-06-12T06:33:37.482Z,19.33
2017-06-12T06:36:03.929Z,19.21
2017-06-12T06:38:30.275Z,19.40
2017-06-12T06:40:56.585Z,19.16
2017-06-12T06:43:22.948Z,19.17
2017-06-12T06:45:49.413Z,18.79
2017-06-12T06:48:15.739Z,18.95
2017-06-12T06:50:42.072Z,18.51
2017-06-12T06:53:08.387Z,19.19
2017-06-12T06:55:34.739Z,18.32
2017-06-12T06:58:01.047Z,19.36
2017-06-12T07:00:27.405Z,18.94
2017-06-12T07:02:53.742Z,18.68
2017-06-12T07:05:20.085Z,18.43
2017-06-12T07:07:46.454Z,18.86
2017-06-12T07:10:12.776Z,19.43
2017-06-12T07:12:39.109Z,18.51
2017-06-12T07:15:05.425Z,19.15
2017-06-12T07:17:31.791Z,19.36
2017-06-12T07:19:58.116Z,19.48
2017-06-12T07:22:24.471Z,18.37
2017-06-12T07:24:50.844Z,18.87
2017-06-12T07:27:17.184Z,19.40
2017-06-12T07:29:43.501Z,19.67
2017-06-12T07:32:09.838Z,18.89
2017-06-12T07:34:36.189Z,19.26
2017-06-12T07:37:02.502Z,19.50
2017-06-12T07:39:28.836Z,19.52
2017-06-12T07:41:55.141Z,19.63
2017-06-12T07:44:21.476Z,19.82
2017-06-12T07:46:47.802Z,19.65
2017-06-12T07:49:14.141Z,19.72
2017-06-12T07:51:40.471Z,19.40
2017-06-12T07:54:06.874Z,19.28
2017-06-12T07:56:33.253Z,19.34
2017-06-12T07:58:59.603Z,19.57
2017-06-12T08:01:25.938Z,19.87
2017-06-12T08:03:52.290Z,18.99
2017-06-12T08:06:18.670Z,19.29
2017-06-12T08:08:45.011Z,20.00
2017-06-12T08:11:11.325Z,19.78
2017-06-12T08:13:37.647Z,19.94
2017-06-12T08:16:04.848Z,20.16
2017-06-12T08:18:31.188Z,20.23
2017-06-12T08:20:57.543Z,19.67
2017-06-12T08:23:23.870Z,20.13
2017-06-12T08:25:50.192Z,19.44
2017-06-12T08:28:16.519Z,20.39
2017-06-12T08:30:42.850Z,18.99
2017-06-12T08:33:09.182Z,19.81
2017-06-12T08:35:35.502Z,19.86
2017-06-12T08:38:01.870Z,19.64
2017-06-12T08:40:28.218Z,20.17
2017-06-12T08:42:54.542Z,19.80
2017-06-12T08:45:20.886Z,20.45
2017-06-12T08:47:47.222Z,20.13
2017-06-12T08:50:13.572Z,20.31
2017-06-12T08:52:39.937Z,20.06
2017-06-12T08:55:06.258Z,20.20
2017-06-12T08:57:32.579Z,20.45
2017-06-12T08:59:58.961Z,19.98
2017-06-12T09:02:25.322Z,20.47
2017-06-12T09:04:51.653Z,20.08
2017-06-12T09:07:18.017Z,21.17
2017-06-12T09:09:44.364Z,20.68
2017-06-12T09:12:10.703Z,20.58
2017-06-12T09:14:37.055Z,20.90
2017-06-12T09:17:03.420Z,20.06
2017-06-12T09:19:29.765Z,20.35
2017-06-12T09:21:56.094Z,20.35
2017-06-12T09:24:22.440Z,20.76
2017-06-12T09:26:48.795Z,20.56
2017-06-12T09:29:15.144Z,20.25
2017-06-12T09:31:41.491Z,21.06
2017-06-12T09:34:07.831Z,20.21
2017-06-12T09:36:34.160Z,21.00
2017-06-12T09:39:00.527Z,20.90
2017-06-12T09:41:26.889Z,21.12
2017-06-12T09:43:53.326Z,19.50
2017-06-12T09:46:19.674Z,20.67
2017-06-12T09:48:46.011Z,20.53
2017-06-12T09:51:12.346Z,21.03
2017-06-12T09:53:38.671Z,20.84
2017-06-12T09:56:04.972Z,19.86
2017-06-12T09:58:31.351Z,20.84
2017-06-12T10:00:57.675Z,20.66
2017-06-12T10:03:24.007Z,20.51
2017-06-12T10:05:50.345Z,20.64
2017-06-12T10:08:16.675Z,21.20
2017-06-12T10:10:42.995Z,20.73
2017-06-12T10:13:09.330Z,21.58
2017-06-12T10:15:35.668Z,21.77
2017-06-12T10:18:02.044Z,21.51
2017-06-12T10:20:28.372Z,22.17
2017-06-12T10:22:54.720Z,21.88
2017-06-12T10:25:21.045Z,21.77
2017-06-12T10:27:47.359Z,22.04
2017-06-12T10:30:13.722Z,22.03
2017-06-12T10:32:40.056Z,22.59
2017-06-12T10:35:06.416Z,22.33
2017-06-12T10:37:32.734Z,22.62
2017-06-12T10:39:59.070Z,22.73
2017-06-12T10:42:25.459Z,22.45
2017-06-12T10:44:51.850Z,21.94
2017-06-12T10:47:18.174Z,22.90
2017-06-12T10:49:44.495Z,22.26
2017-06-12T10:52:10.859Z,23.25
2017-06-12T10:54:37.213Z,23.54
2017-06-12T10:57:03.556Z,23.71
2017-06-12T10:59:29.925Z,22.15
2017-06-12T11:01:56.292Z,22.93
2017-06-12T11:04:22.662Z,23.26
2017-06-12T11:06:49.007Z,23.14
2017-06-12T11:09:15.357Z,22.33
2017-06-12T11:11:41.688Z,23.18
2017-06-12T11:14:08.034Z,21.87
2017-06-12T11:16:34.397Z,22.70
2017-06-12T11:19:00.734Z,21.63
2017-06-12T11:21:27.151Z,22.15
2017-06-12T11:23:53.538Z,22.41
2017-06-12T11:26:19.945Z,21.62
2017-06-12T11:28:46.315Z,22.19
2017-06-12T11:31:12.681Z,22.19
2017-06-12T11:33:39.006Z,22.11
2017-06-12T11:36:05.322Z,22.42
2017-06-12T11:38:31.663Z,22.36
2017-06-12T11:40:57.981Z,21.65
2017-06-12T11:43:24.397Z,21.99
2017-06-12T11:45:50.780Z,21.87
2017-06-12T11:48:17.099Z,22.25
2017-06-12T11:50:43.458Z,22.73
2017-06-12T11:53:11.368Z,22.21
2017-06-12T11:55:37.707Z,22.11
2017-06-12T11:58:04.066Z,22.30
2017-06-12T12:00:30.420Z,22.09
2017-06-12T12:02:56.749Z,22.65
2017-06-12T12:05:23.123Z,21.44
2017-06-12T12:07:49.470Z,22.17
2017-06-12T12:10:15.893Z,22.13
2017-06-12T12:12:42.271Z,22.25
2017-06-12T12:15:08.637Z,22.17
2017-06-12T12:17:34.968Z,22.44
2017-06-12T12:20:01.346Z,22.52
2017-06-12T12:22:27.690Z,22.24
2017-06-12T12:24:54.073Z,22.05
2017-06-12T12:27:20.418Z,21.83
2017-06-12T12:29:46.776Z,22.04
2017-06-12T12:32:13.095Z,20.56
2017-06-12T12:34:39.422Z,21.40
2017-06-12T12:37:05.758Z,21.22
2017-06-12T12:39:32.110Z,20.82
2017-06-12T12:41:58.461Z,20.58
2017-06-12T12:44:24.813Z,21.79
2017-06-12T12:46:51.181Z,21.13
2017-06-12T12:49:17.541Z,21.71
2017-06-12T12:51:43.893Z,21.48
2017-06-12T12:54:10.240Z,22.01
2017-06-12T12:56:36.624Z,21.63
2017-06-12T12:59:02.969Z,21.54
2017-06-12T13:01:29.308Z,21.47
2017-06-12T13:03:55.643Z,21.26
2017-06-12T13:06:21.978Z,21.20
2017-06-12T13:08:48.314Z,21.49
2017-06-12T13:11:14.657Z,21.73
2017-06-12T13:13:40.987Z,20.89
2017-06-12T13:16:07.371Z,20.81
2017-06-12T13:18:33.720Z,21.52
2017-06-12T13:21:00.069Z,21.70
2017-06-12T13:23:26.409Z,21.93
2017-06-12T13:25:52.776Z,22.18
2017-06-12T13:28:19.125Z,22.68
2017-06-12T13:30:45.487Z,21.18
2017-06-12T13:33:11.868Z,21.71
2017-06-12T13:35:38.216Z,22.08
2017-06-12T13:38:04.554Z,22.48
2017-06-12T13:40:30.885Z,21.99
2017-06-12T13:42:57.233Z,22.14
2017-06-12T13:45:23.589Z,22.28
2017-06-12T13:47:49.969Z,21.93
2017-06-12T13:50:16.295Z,22.51
2017-06-12T13:52:42.621Z,22.62
2017-06-12T13:55:08.989Z,22.46
2017-06-12T13:57:35.322Z,22.96
2017-06-12T14:00:01.683Z,23.18
2017-06-12T14:02:28.035Z,23.44
2017-06-12T14:04:54.409Z,22.21
2017-06-12T14:07:20.756Z,22.44
2017-06-12T14:09:47.110Z,22.74
2017-06-12T14:12:13.464Z,22.29
2017-06-12T14:14:39.860Z,21.75
2017-06-12T14:17:06.231Z,22.44
2017-06-12T14:19:32.574Z,22.74
2017-06-12T14:21:58.918Z,23.22
2017-06-12T14:24:25.273Z,23.54
2017-06-12T14:26:51.619Z,22.31
2017-06-12T14:29:17.945Z,22.36
2017-06-12T14:31:44.309Z,21.93
2017-06-12T14:34:10.656Z,22.66
2017-06-12T14:36:37.007Z,22.25
2017-06-12T14:39:03.445Z,22.19
2017-06-12T14:41:29.794Z,21.32
2017-06-12T14:43:56.137Z,22.00
2017-06-12T14:46:22.525Z,22.04
2017-06-12T14:48:48.920Z,22.26
2017-06-12T14:51:15.250Z,21.25
2017-06-12T14:53:41.570Z,21.99
2017-06-12T14:56:07.975Z,21.00
2017-06-12T14:58:34.312Z,21.04
2017-06-12T15:01:00.658Z,21.27
2017-06-12T15:03:27.022Z,21.81
2017-06-12T15:05:53.389Z,22.03
2017-06-12T15:08:19.730Z,21.32
2017-06-12T15:10:46.089Z,21.06
2017-06-12T15:13:12.414Z,21.07
2017-06-12T15:15:38.764Z,21.09
2017-06-12T15:18:05.147Z,21.33
2017-06-12T15:20:31.496Z,20.73
2017-06-12T15:22:57.852Z,20.90
2017-06-12T15:25:24.163Z,20.94
2017-06-12T15:27:50.585Z,21.56
2017-06-12T15:30:16.908Z,21.09
2017-06-12T15:32:43.262Z,21.42
2017-06-12T15:35:09.579Z,21.04
2017-06-12T15:37:35.906Z,21.08
2017-06-12T15:40:02.252Z,21.31
2017-06-12T15:42:28.609Z,21.01
2017-06-12T15:44:54.938Z,21.25
2017-06-12T15:47:21.306Z,20.84
2017-06-12T15:49:47.683Z,21.49
2017-06-12T15:52:13.998Z,21.15
2017-06-12T15:54:40.347Z,21.26
2017-06-12T15:57:06.692Z,21.29
2017-06-12T15:59:35.866Z,20.86
2017-06-12T16:02:04.891Z,20.80
2017-06-12T16:04:31.222Z,20.82
2017-06-12T16:06:57.580Z,21.52
2017-06-12T16:09:23.933Z,20.87
2017-06-12T16:11:50.283Z,20.74
2017-06-12T16:14:16.678Z,20.39
2017-06-12T16:16:43.006Z,20.87
2017-06-12T16:19:09.406Z,21.14
2017-06-12T16:21:35.852Z,20.92
2017-06-12T16:24:03.086Z,21.18
2017-06-12T16:26:29.443Z,21.42
2017-06-12T16:28:55.887Z,21.07
2017-06-12T16:31:22.237Z,20.95
2017-06-12T16:33:48.574Z,21.06
2017-06-12T16:36:14.988Z,20.37
2017-06-12T16:38:41.352Z,21.09
2017-06-12T16:41:07.709Z,21.28
2017-06-12T16:43:34.099Z,21.07
2017-06-12T16:46:00.517Z,20.63
2017-06-12T16:48:26.871Z,20.61
2017-06-12T16:50:53.307Z,20.73
2017-06-12T16:53:19.721Z,21.19
2017-06-12T16:55:46.070Z,21.45
2017-06-12T16:58:13.054Z,21.35
2017-06-12T17:00:40.245Z,20.58
2017-06-12T17:03:07.236Z,20.64
2017-06-12T17:05:33.615Z,21.02
2017-06-12T17:08:00.128Z,20.96
2017-06-12T17:10:26.919Z,21.24
2017-06-12T17:12:53.311Z,20.67
2017-06-12T17:15:19.651Z,21.05
2017-06-12T17:17:46.019Z,20.97
2017-06-12T17:20:12.490Z,19.90
2017-06-12T17:22:39.634Z,20.61
2017-06-12T17:25:08.551Z,20.72
2017-06-12T17:27:35.041Z,20.86
2017-06-12T17:30:03.490Z,20.69
2017-06-12T17:32:30.218Z,20.58
2017-06-12T17:34:57.090Z,20.89
2017-06-12T17:37:23.450Z,20.83
2017-06-12T17:39:49.802Z,20.39
2017-06-12T17:42:16.285Z,20.71
2017-06-12T17:44:42.635Z,20.64
2017-06-12T17:47:08.979Z,20.33
2017-06-12T17:49:35.441Z,20.71
2017-06-12T17:52:01.782Z,20.65
2017-06-12T17:54:28.629Z,20.31
2017-06-12T17:56:55.453Z,19.74
2017-06-12T17:59:21.773Z,19.66
2017-06-12T18:01:48.210Z,20.45
2017-06-12T18:04:14.580Z,19.78
2017-06-12T18:06:41.280Z,20.20
2017-06-12T18:09:07.644Z,20.01
2017-06-12T18:11:34.037Z,19.68
2017-06-12T18:14:00.370Z,19.99
2017-06-12T18:16:26.769Z,20.02
2017-06-12T18:18:53.209Z,19.38
2017-06-12T18:21:20.899Z,20.49
2017-06-12T18:23:47.309Z,19.62
2017-06-12T18:26:13.653Z,19.73
2017-06-12T18:28:40.380Z,19.41
2017-06-12T18:31:07.127Z,20.32
2017-06-12T18:33:33.572Z,19.88
2017-06-12T18:35:59.907Z,19.42
2017-06-12T18:38:26.252Z,19.94
2017-06-12T18:40:52.601Z,19.69
2017-06-12T18:43:18.927Z,19.66
2017-06-12T18:45:45.299Z,19.25
2017-06-12T18:48:11.661Z,19.38
2017-06-12T18:50:37.971Z,19.74
2017-06-12T18:53:04.299Z,19.81
2017-06-12T18:55:30.632Z,19.25
2017-06-12T18:57:56.973Z,19.41
2017-06-12T19:00:23.308Z,19.61
2017-06-12T19:02:49.688Z,19.23
2017-06-12T19:05:16.018Z,19.53
2017-06-12T19:07:42.343Z,19.80
2017-06-12T19:10:08.694Z,19.16
2017-06-12T19:12:35.053Z,19.89
2017-06-12T19:15:01.396Z,19.48
2017-06-12T19:17:27.812Z,19.69
2017-06-12T19:19:54.132Z,19.56
2017-06-12T19:22:20.459Z,19.93
2017-06-12T19:24:46.854Z,19.33
2017-06-12T19:27:13.220Z,19.38
2017-06-12T19:29:39.552Z,19.91
2017-06-12T19:32:05.903Z,19.37
2017-06-12T19:34:32.318Z,19.51
2017-06-12T19:36:58.724Z,19.07
2017-06-12T19:39:25.057Z,18.87
2017-06-12T19:41:51.400Z,19.34
2017-06-12T19:44:17.744Z,19.08
2017-06-12T19:46:44.741Z,19.65
2017-06-12T19:49:11.142Z,19.45
2017-06-12T19:51:37.447Z,18.95
2017-06-12T19:54:03.885Z,18.98
2017-06-12T19:56:30.352Z,19.09
2017-06-12T19:58:56.717Z,18.66
2017-06-12T20:01:23.609Z,19.40
2017-06-12T20:03:49.983Z,19.33
2017-06-12T20:06:16.339Z,18.63
2017-06-12T20:08:42.940Z,19.17
2017-06-12T20:11:09.294Z,19.18
2017-06-12T20:13:35.628Z,19.05
2017-06-12T20:16:01.972Z,18.72
2017-06-12T20:18:28.290Z,19.03
2017-06-12T20:20:54.770Z,19.04
2017-06-12T20:23:21.118Z,19.34
2017-06-12T20:25:47.457Z,18.31
2017-06-12T20:28:13.801Z,19.05
2017-06-12T20:30:40.160Z,18.71
2017-06-12T20:33:06.554Z,18.98
2017-06-12T20:35:32.873Z,18.70
2017-06-12T20:37:59.205Z,17.95
2017-06-12T20:40:25.589Z,17.99
2017-06-12T20:42:51.930Z,18.92
2017-06-12T20:45:18.268Z,18.20
2017-06-12T20:47:44.634Z,18.68
2017-06-12T20:50:10.984Z,17.76
2017-06-12T20:52:37.322Z,18.34
2017-06-12T20:55:03.610Z,18.41
2017-06-12T20:57:29.969Z,18.07
2017-06-12T20:59:56.290Z,18.82
2017-06-12T21:02:22.621Z,19.14
2017-06-12T21:04:48.930Z,18.70
2017-06-12T21:07:15.246Z,18.00
2017-06-12T21:09:41.586Z,18.22
2017-06-12T21:12:07.928Z,19.04
2017-06-12T21:14:34.250Z,18.87
2017-06-12T21:17:00.577Z,19.06
2017-06-12T21:19:26.917Z,18.71
2017-06-12T21:21:53.250Z,18.73
2017-06-12T21:24:19.699Z,18.33
2017-06-12T21:26:46.007Z,18.68
2017-06-12T21:29:12.306Z,18.72
2017-06-12T21:31:38.606Z,18.12
2017-06-12T21:34:04.917Z,18.56
2017-06-12T21:36:31.734Z,18.24
2017-06-12T21:38:58.115Z,18.32
2017-06-12T21:41:24.422Z,18.99
2017-06-12T21:43:50.728Z,18.61
2017-06-12T21:46:17.091Z,18.41
2017-06-12T21:48:43.417Z,18.95
2017-06-12T21:51:09.726Z,18.98
2017-06-12T21:53:36.053Z,18.33
2017-06-12T21:56:02.432Z,18.98
2017-06-12T21:58:28.738Z,17.82
2017-06-12T22:00:55.048Z,17.60
2017-06-12T22:03:21.405Z,17.72
2017-06-12T22:05:48.431Z,17.85
2017-06-12T22:08:14.837Z,17.35
2017-06-12T22:10:41.244Z,18.01
2017-06-12T22:13:07.611Z,17.98
2017-06-12T22:15:33.960Z,18.17
2017-06-12T22:18:00.325Z,18.71
2017-06-12T22:20:26.629Z,18.85
2017-06-12T22:22:52.976Z,18.66
2017-06-12T22:25:19.435Z,18.73
2017-06-12T22:27:45.782Z,18.10
2017-06-12T22:30:12.114Z,18.35
2017-06-12T22:32:38.437Z,18.28
2017-06-12T22:35:04.780Z,18.32
2017-06-12T22:37:31.112Z,18.62
2017-06-12T22:39:57.434Z,18.14
2017-06-12T22:42:23.768Z,17.91
2017-06-12T22:44:50.070Z,18.34
2017-06-12T22:47:16.375Z,18.60
2017-06-12T22:49:42.696Z,17.79
2017-06-12T22:52:09.015Z,18.09
2017-06-12T22:54:35.337Z,17.76
2017-06-12T22:57:01.661Z,18.04
2017-06-12T22:59:27.997Z,17.76
2017-06-12T23:01:54.355Z,17.09
2017-06-12T23:04:20.682Z,18.18
2017-06-12T23:06:47.038Z,17.56
2017-06-12T23:09:13.362Z,17.79
2017-06-12T23:11:39.742Z,18.69
2017-06-12T23:14:06.060Z,18.66
2017-06-12T23:16:32.397Z,18.56
2017-06-12T23:18:59.331Z,18.40
2017-06-12T23:21:26.370Z,17.78
2017-06-12T23:23:59.215Z,18.41
2017-06-12T23:26:25.539Z,18.04
2017-06-12T23:28:52.083Z,18.34
2017-06-12T23:31:18.436Z,18.68
2017-06-12T23:33:44.752Z,18.79
2017-06-12T23:36:11.107Z,18.81
2017-06-12T23:38:37.854Z,18.53
2017-06-12T23:41:04.614Z,18.72
2017-06-12T23:43:30.934Z,18.41
2017-06-12T23:45:57.248Z,18.60
2017-06-12T23:48:23.966Z,18.40
2017-06-12T23:50:50.391Z,17.40
2017-06-12T23:53:17.201Z,18.04
2017-06-12T23:55:43.578Z,18.34
2017-06-12T23:58:09.906Z,18.33
